Time;durP1;ratioP1;P1;durP2;ratioP2;P2;SDS_P1;SDS_P2;PMS_P1;PMS_P2;Temp;Humidity;BMP_temperature;BMP_pressure;BME280_temperature;BME280_humidity;BME280_pressure;Samples;Min_cycle;Max_cycle;Signal;HPM_P1;HPM_P2
2022/11/08 00:03:49;;;;;;;11.85;11.02;;;5.60;99.90;;;;;;4232996;28;20036;-85
2022/11/08 00:14:02;;;;;;;10.43;9.73;;;5.80;99.90;;;;;;4230315;28;20066;-84
2022/11/08 00:16:22;;;;;;;15.77;14.48;;;5.60;99.90;;;;;;4229951;28;20066;-84
2022/11/08 00:18:42;;;;;;;17.92;16.20;;;5.60;99.90;;;;;;4228760;28;20042;-85
2022/11/08 00:21:02;;;;;;;16.42;15.00;;;5.40;99.90;;;;;;4226099;28;20058;-85
2022/11/08 00:23:22;;;;;;;16.90;15.60;;;5.30;99.90;;;;;;4232811;28;20062;-84
2022/11/08 00:25:42;;;;;;;25.75;17.88;;;5.30;99.90;;;;;;4228725;28;20051;-85
2022/11/08 00:28:01;;;;;;;21.42;18.20;;;5.20;99.90;;;;;;4226986;28;20043;-85
2022/11/08 00:30:22;;;;;;;29.98;19.33;;;5.10;99.90;;;;;;4218159;28;20107;-85
2022/11/08 00:32:41;;;;;;;24.75;19.05;;;5.00;99.90;;;;;;4224473;28;20050;-85
2022/11/08 00:35:01;;;;;;;17.92;14.90;;;4.90;99.90;;;;;;4227750;28;20103;-84
2022/11/08 00:37:22;;;;;;;19.50;17.63;;;4.80;99.90;;;;;;4227857;28;20317;-85
2022/11/08 00:39:42;;;;;;;21.98;16.55;;;4.80;99.90;;;;;;4233175;28;20062;-84
2022/11/08 00:42:02;;;;;;;17.13;15.43;;;4.70;99.90;;;;;;4234562;28;20085;-85
2022/11/08 00:44:21;;;;;;;18.33;16.77;;;4.80;99.90;;;;;;4233691;28;20065;-84
2022/11/08 00:46:41;;;;;;;21.95;16.40;;;5.00;99.90;;;;;;4227267;28;20098;-85
2022/11/08 00:49:01;;;;;;;20.60;15.73;;;5.10;99.90;;;;;;4217886;28;20056;-84
2022/11/08 00:51:20;;;;;;;19.40;17.80;;;5.00;99.90;;;;;;4228441;28;20035;-84
2022/11/08 00:53:40;;;;;;;17.88;16.13;;;5.00;99.90;;;;;;4231547;28;20385;-85
2022/11/08 00:56:09;;;;;;;19.30;17.45;;;5.00;99.90;;;;;;4230584;28;20043;-84
2022/11/08 00:58:29;;;;;;;17.35;15.63;;;5.10;99.90;;;;;;4230246;28;20113;-85
2022/11/08 01:00:49;;;;;;;20.67;18.58;;;5.20;99.90;;;;;;4233107;28;20051;-84
2022/11/08 01:03:19;;;;;;;19.85;17.83;;;5.20;99.90;;;;;;4238058;28;20051;-85
2022/11/08 01:05:39;;;;;;;17.27;15.80;;;5.30;99.90;;;;;;4226400;28;20381;-85
2022/11/08 01:07:58;;;;;;;23.00;18.48;;;5.40;99.90;;;;;;4222207;28;20042;-84
2022/11/08 01:10:19;;;;;;;23.88;19.70;;;5.40;99.90;;;;;;4232935;28;20393;-85
2022/11/08 01:12:39;;;;;;;20.58;18.65;;;5.40;99.90;;;;;;4232640;28;20038;-85
2022/11/08 01:14:58;;;;;;;18.65;17.13;;;5.30;99.90;;;;;;4221554;28;20042;-85
2022/11/08 01:17:18;;;;;;;24.20;17.80;;;5.40;99.90;;;;;;4225405;28;20054;-85
2022/11/08 01:19:38;;;;;;;21.45;18.85;;;5.30;99.90;;;;;;4220014;28;20050;-85
2022/11/08 01:21:58;;;;;;;19.90;17.98;;;5.20;99.90;;;;;;4234900;28;20086;-85
2022/11/08 01:24:20;;;;;;;35.78;19.00;;;5.00;99.90;;;;;;4216599;28;20407;-85
2022/11/08 01:26:40;;;;;;;61.10;20.02;;;4.90;99.90;;;;;;4216092;28;20043;-85
2022/11/08 01:29:00;;;;;;;44.33;18.90;;;4.70;99.90;;;;;;4228971;28;20069;-85
2022/11/08 01:31:22;;;;;;;56.90;21.08;;;4.70;99.90;;;;;;4227714;28;20043;-85
2022/11/08 01:33:42;;;;;;;57.80;22.25;;;4.70;99.90;;;;;;4216036;28;20066;-85
2022/11/08 01:36:13;;;;;;;41.22;21.08;;;4.70;99.90;;;;;;4227559;28;20130;-85
2022/11/08 01:38:33;;;;;;;88.57;23.58;;;4.70;99.90;;;;;;4216230;28;20058;-85
2022/11/08 01:40:53;;;;;;;25.42;23.17;;;4.60;99.90;;;;;;4212477;28;20047;-85
2022/11/08 01:43:44;;;;;;;22.08;19.77;;;4.70;99.90;;;;;;4228653;28;20047;-85
2022/11/08 01:46:28;;;;;;;19.67;17.70;;;4.90;99.90;;;;;;4216089;28;20251;-85
2022/11/08 01:49:40;;;;;;;21.83;19.20;;;4.80;99.90;;;;;;4230057;28;20080;-84
2022/11/08 01:52:13;;;;;;;18.35;16.63;;;4.90;99.90;;;;;;4154310;28;20060;-84
2022/11/08 01:54:33;;;;;;;18.77;17.02;;;5.00;99.90;;;;;;4140963;28;20045;-85
2022/11/08 01:56:55;;;;;;;20.25;18.08;;;5.10;99.90;;;;;;4154903;28;20387;-84
2022/11/08 01:59:17;;;;;;;22.38;20.08;;;5.00;99.90;;;;;;4140749;28;20065;-85
2022/11/08 02:01:37;;;;;;;18.13;16.23;;;5.10;99.90;;;;;;4154331;28;20104;-85
2022/11/08 02:03:58;;;;;;;17.67;16.27;;;5.10;99.90;;;;;;4154137;28;20347;-85
2022/11/08 02:06:19;;;;;;;19.52;17.38;;;5.40;99.90;;;;;;4139848;28;20096;-85
2022/11/08 02:08:40;;;;;;;17.73;16.25;;;5.40;99.90;;;;;;4154447;28;20073;-85
2022/11/08 02:11:01;;;;;;;19.63;15.98;;;5.30;99.90;;;;;;4154284;28;20049;-85
2022/11/08 02:13:26;;;;;;;11.70;11.00;;;5.40;99.90;;;;;;4154229;28;20411;-85
2022/11/08 02:15:46;;;;;;;10.80;10.05;;;5.40;99.90;;;;;;4153750;28;20065;-85
2022/11/08 02:18:05;;;;;;;13.10;12.23;;;5.50;99.90;;;;;;4154498;28;20096;-85
2022/11/08 02:20:26;;;;;;;15.38;13.95;;;5.60;99.90;;;;;;4154381;28;20065;-84
2022/11/08 02:23:11;;;;;;;17.05;15.50;;;5.60;99.90;;;;;;4154260;28;20391;-85
2022/11/08 02:25:31;;;;;;;17.58;15.98;;;5.50;99.90;;;;;;4125315;28;20053;-85
2022/11/08 02:27:51;;;;;;;19.83;16.38;;;5.50;99.90;;;;;;4174518;28;20082;-85
2022/11/08 02:30:12;;;;;;;18.85;16.15;;;5.40;99.90;;;;;;4216303;28;20082;-85
2022/11/08 02:32:42;;;;;;;18.27;16.45;;;5.40;99.90;;;;;;4225810;28;20111;-85
2022/11/08 02:35:01;;;;;;;18.60;16.42;;;5.30;99.90;;;;;;4228843;28;20043;-84
2022/11/08 02:37:22;;;;;;;16.42;14.82;;;5.20;99.90;;;;;;4233365;28;20038;-85
2022/11/08 02:39:43;;;;;;;12.68;11.85;;;5.30;99.90;;;;;;4232470;28;20042;-85
2022/11/08 02:42:03;;;;;;;11.77;11.18;;;5.40;99.90;;;;;;4231152;28;20046;-85
2022/11/08 02:44:22;;;;;;;13.48;12.27;;;5.50;99.90;;;;;;4228989;28;20055;-85
2022/11/08 02:46:42;;;;;;;13.13;12.40;;;5.60;99.90;;;;;;4217734;28;20046;-84
2022/11/08 02:49:03;;;;;;;14.05;11.85;;;5.50;99.90;;;;;;4230160;28;20046;-85
2022/11/08 02:51:23;;;;;;;13.07;12.05;;;5.50;99.90;;;;;;4218535;28;20104;-85
2022/11/08 02:53:42;;;;;;;13.60;12.60;;;5.60;99.90;;;;;;4217985;28;20059;-85
2022/11/08 02:56:02;;;;;;;15.50;14.23;;;5.60;99.90;;;;;;4226962;28;20047;-85
2022/11/08 02:58:22;;;;;;;13.50;12.57;;;5.50;99.90;;;;;;4225765;28;20051;-85
2022/11/08 03:00:42;;;;;;;13.88;12.95;;;5.50;99.90;;;;;;4234693;28;20050;-85
2022/11/08 03:03:01;;;;;;;11.27;10.60;;;5.60;99.90;;;;;;4215131;28;20096;-85
2022/11/08 03:05:22;;;;;;;9.68;9.15;;;5.60;99.90;;;;;;4229205;28;20392;-85
2022/11/08 03:07:42;;;;;;;11.07;10.57;;;5.70;99.90;;;;;;4220092;28;20252;-85
2022/11/08 03:10:02;;;;;;;9.88;9.38;;;5.70;99.90;;;;;;4219790;28;20083;-85
2022/11/08 03:12:22;;;;;;;11.90;11.20;;;5.80;99.90;;;;;;4228076;28;20073;-85
2022/11/08 03:14:41;;;;;;;15.18;13.77;;;5.80;99.90;;;;;;4227807;28;20051;-85
2022/11/08 03:17:01;;;;;;;16.63;15.13;;;5.60;99.90;;;;;;4232026;28;20111;-85
2022/11/08 03:19:21;;;;;;;16.30;14.70;;;5.40;99.90;;;;;;4224805;28;20058;-85
2022/11/08 03:21:41;;;;;;;17.35;15.57;;;5.30;99.90;;;;;;4230888;28;20046;-85
2022/11/08 03:24:01;;;;;;;16.70;15.18;;;5.30;99.90;;;;;;4216382;28;20074;-85
2022/11/08 03:26:21;;;;;;;16.77;15.25;;;5.30;99.90;;;;;;4220370;28;20077;-84
2022/11/08 03:28:41;;;;;;;18.50;16.50;;;5.20;99.90;;;;;;4221620;28;20389;-85
2022/11/08 03:31:00;;;;;;;15.80;14.48;;;5.10;99.90;;;;;;4218529;28;20285;-85
2022/11/08 03:33:20;;;;;;;15.13;13.65;;;5.30;99.90;;;;;;4231407;28;20078;-85
2022/11/08 03:35:41;;;;;;;14.32;13.20;;;5.30;99.90;;;;;;4231362;28;20047;-85
2022/11/08 03:38:01;;;;;;;12.07;11.40;;;5.40;99.90;;;;;;4228341;28;20255;-85
2022/11/08 03:40:22;;;;;;;13.85;12.85;;;5.40;99.90;;;;;;4232771;28;20381;-85
2022/11/08 03:42:41;;;;;;;10.60;10.00;;;5.40;99.90;;;;;;4216799;28;20040;-85
2022/11/08 03:45:01;;;;;;;10.93;10.32;;;5.50;99.90;;;;;;4216147;28;20097;-85
2022/11/08 03:47:21;;;;;;;10.75;10.18;;;5.50;99.90;;;;;;4227962;28;20039;-85
2022/11/08 03:49:40;;;;;;;10.25;9.95;;;5.50;99.90;;;;;;4225913;28;20053;-85
2022/11/08 03:52:00;;;;;;;10.02;9.57;;;5.50;99.90;;;;;;4225178;28;20062;-85
2022/11/08 03:54:20;;;;;;;7.57;7.38;;;5.50;99.90;;;;;;4224371;28;20109;-85
2022/11/08 03:56:40;;;;;;;6.35;6.15;;;5.60;99.90;;;;;;4217272;28;20097;-85
2022/11/08 03:59:00;;;;;;;8.30;8.10;;;5.70;99.90;;;;;;4227188;28;20051;-85
2022/11/08 04:01:19;;;;;;;8.55;8.00;;;5.70;99.90;;;;;;4225654;28;20071;-85
2022/11/08 04:03:39;;;;;;;10.85;10.07;;;5.60;99.90;;;;;;4212285;28;20061;-85
2022/11/08 04:06:00;;;;;;;11.25;10.38;;;5.60;99.90;;;;;;4216271;28;20081;-85
2022/11/08 04:08:20;;;;;;;9.88;9.48;;;5.60;99.90;;;;;;4214764;28;20098;-85
2022/11/08 04:10:41;;;;;;;8.05;7.85;;;5.50;99.90;;;;;;4218368;28;20048;-85
2022/11/08 04:15:39;;;;;;;7.05;6.95;;;5.50;99.90;;;;;;4230045;28;20043;-85
2022/11/08 04:23:22;;;;;;;;;;;5.40;99.90;;;;;;4227704;28;20231;-85
2022/11/08 04:25:43;;;;;;;8.88;8.50;;;5.40;99.90;;;;;;4229014;28;19975;-85
2022/11/08 04:28:03;;;;;;;7.13;7.03;;;5.30;99.90;;;;;;4226647;28;20058;-85
2022/11/08 04:30:22;;;;;;;6.05;5.95;;;5.30;99.90;;;;;;4223156;28;20047;-85
2022/11/08 04:32:42;;;;;;;7.93;7.60;;;5.30;99.90;;;;;;4216238;28;20035;-85
2022/11/08 04:35:02;;;;;;;6.18;5.88;;;5.40;99.90;;;;;;4228493;28;20054;-85
2022/11/08 04:37:21;;;;;;;10.55;9.98;;;5.40;99.90;;;;;;4216541;28;20254;-85
2022/11/08 04:39:41;;;;;;;10.85;10.05;;;5.30;99.90;;;;;;4215081;28;20234;-85
2022/11/08 04:42:01;;;;;;;13.50;12.70;;;5.10;99.90;;;;;;4229560;28;20094;-85
2022/11/08 04:44:22;;;;;;;13.48;12.48;;;4.90;99.90;;;;;;4230553;28;20242;-85
2022/11/08 04:46:41;;;;;;;14.00;12.95;;;4.80;99.90;;;;;;4223881;28;20038;-85
2022/11/08 04:49:01;;;;;;;14.05;12.88;;;4.70;99.90;;;;;;4231015;28;20051;-85
2022/11/08 04:51:25;;;;;;;14.27;13.30;;;4.70;99.90;;;;;;4222519;28;20042;-85
2022/11/08 04:53:45;;;;;;;15.40;14.10;;;4.80;99.90;;;;;;4222775;28;20051;-85
2022/11/08 04:56:06;;;;;;;14.18;12.93;;;4.80;99.90;;;;;;4231256;28;20042;-85
2022/11/08 04:58:27;;;;;;;15.27;14.20;;;4.80;99.90;;;;;;4226070;28;20062;-85
2022/11/08 05:00:47;;;;;;;13.43;12.38;;;4.80;99.90;;;;;;4232744;28;20112;-85
2022/11/08 05:03:07;;;;;;;12.52;11.82;;;4.70;99.90;;;;;;4229798;28;20070;-85
2022/11/08 05:05:27;;;;;;;11.32;10.82;;;4.70;99.90;;;;;;4231465;28;20050;-85
2022/11/08 05:07:46;;;;;;;13.43;12.52;;;4.70;99.90;;;;;;4231177;28;20047;-85
2022/11/08 05:10:06;;;;;;;14.57;13.10;;;4.80;99.90;;;;;;4229487;28;20093;-85
2022/11/08 05:12:26;;;;;;;12.85;12.15;;;4.80;99.90;;;;;;4229899;28;20076;-85
2022/11/08 05:14:46;;;;;;;12.57;11.75;;;4.60;99.90;;;;;;4217250;28;20048;-85
2022/11/08 05:17:06;;;;;;;13.18;12.20;;;4.60;99.90;;;;;;4229391;28;20086;-84
2022/11/08 05:24:42;;;;;;;11.18;10.57;;;4.50;99.90;;;;;;4228026;28;20051;-85
2022/11/08 05:27:02;;;;;;;12.20;11.30;;;4.60;99.90;;;;;;4230841;28;20078;-85
2022/11/08 05:29:22;;;;;;;11.32;10.77;;;4.60;99.90;;;;;;4225403;28;20093;-85
2022/11/08 05:31:42;;;;;;;11.40;10.93;;;4.60;99.90;;;;;;4215175;28;20043;-85
2022/11/08 05:34:02;;;;;;;11.23;10.57;;;4.60;99.90;;;;;;4227876;28;20103;-85
2022/11/08 05:36:22;;;;;;;12.18;11.38;;;4.60;99.90;;;;;;4219293;28;20050;-85
2022/11/08 05:38:42;;;;;;;31.92;16.52;;;4.70;99.90;;;;;;4218989;28;20112;-85
2022/11/08 05:41:09;;;;;;;32.22;17.90;;;4.90;99.90;;;;;;4221993;28;20047;-85
2022/11/08 05:43:29;;;;;;;14.73;13.68;;;4.90;99.90;;;;;;4230014;28;20093;-85
2022/11/08 05:45:48;;;;;;;13.55;12.55;;;4.90;99.90;;;;;;4217798;28;20085;-85
2022/11/08 05:48:08;;;;;;;12.98;11.85;;;4.90;99.90;;;;;;4225616;28;20043;-85
2022/11/08 05:50:32;;;;;;;13.55;12.70;;;4.80;99.90;;;;;;4226804;28;20042;-85
2022/11/08 05:52:53;;;;;;;13.88;12.27;;;4.90;99.90;;;;;;4221824;28;20047;-85
2022/11/08 05:55:13;;;;;;;13.65;12.65;;;4.70;99.90;;;;;;4231306;28;20086;-85
2022/11/08 05:57:33;;;;;;;12.30;11.55;;;4.60;99.90;;;;;;4227736;28;20039;-85
2022/11/08 05:59:53;;;;;;;13.52;12.43;;;4.50;99.90;;;;;;4212101;28;20063;-85
2022/11/08 06:02:15;;;;;;;14.63;13.57;;;4.50;99.90;;;;;;4215805;28;20369;-85
2022/11/08 06:04:36;;;;;;;16.13;14.77;;;4.30;99.90;;;;;;4228308;28;20112;-84
2022/11/08 06:06:55;;;;;;;17.13;16.08;;;4.30;99.90;;;;;;4232074;28;20062;-84
2022/11/08 06:09:15;;;;;;;27.10;17.73;;;4.20;99.90;;;;;;4234898;28;20050;-84
2022/11/08 06:11:34;;;;;;;20.55;18.27;;;4.20;99.90;;;;;;4233083;28;20046;-85
2022/11/08 06:13:54;;;;;;;52.03;16.63;;;4.10;99.90;;;;;;4229819;28;20078;-84
2022/11/08 06:16:16;;;;;;;20.17;17.52;;;4.10;99.90;;;;;;4231806;28;20365;-84
2022/11/08 06:18:36;;;;;;;27.20;17.33;;;4.10;99.90;;;;;;4217457;28;20043;-84
2022/11/08 06:20:57;;;;;;;17.85;16.30;;;4.20;99.90;;;;;;4233906;28;20069;-84
2022/11/08 06:23:17;;;;;;;18.27;16.63;;;4.30;99.90;;;;;;4231808;28;20051;-85
2022/11/08 06:25:38;;;;;;;92.50;17.98;;;4.30;99.90;;;;;;4233527;28;20386;-89
2022/11/08 06:27:59;;;;;;;35.50;17.17;;;4.20;99.90;;;;;;4226073;28;20397;-89
2022/11/08 06:30:19;;;;;;;15.85;14.60;;;4.20;99.90;;;;;;4233480;28;20062;-89
2022/11/08 06:32:40;;;;;;;15.50;14.40;;;4.30;99.90;;;;;;4230836;28;20039;-89
2022/11/08 06:34:59;;;;;;;50.33;13.68;;;4.50;99.90;;;;;;4221132;28;20078;-89
2022/11/08 06:37:19;;;;;;;14.85;13.18;;;4.50;99.90;;;;;;4231692;28;20093;-89
2022/11/08 06:39:40;;;;;;;57.30;12.27;;;4.60;99.90;;;;;;4232147;28;20047;-89
2022/11/08 06:42:00;;;;;;;51.88;16.80;;;4.70;99.90;;;;;;4229538;28;20270;-89
2022/11/08 06:44:20;;;;;;;70.50;15.93;;;4.70;99.90;;;;;;4235825;28;20062;-90
2022/11/08 06:46:39;;;;;;;66.43;14.45;;;4.70;99.90;;;;;;4234986;28;20053;-89
2022/11/08 06:48:59;;;;;;;60.38;15.68;;;4.60;99.90;;;;;;4231823;28;20042;-89
2022/11/08 06:51:19;;;;;;;33.78;13.27;;;4.60;99.90;;;;;;4231945;28;20116;-89
2022/11/08 06:53:39;;;;;;;64.40;14.45;;;4.50;99.90;;;;;;4226802;28;20266;-89
2022/11/08 06:56:01;;;;;;;43.35;15.30;;;4.50;99.90;;;;;;4228659;28;20114;-89
2022/11/08 06:58:20;;;;;;;48.97;14.43;;;4.50;99.90;;;;;;4231889;28;20062;-88
2022/11/08 07:00:40;;;;;;;38.38;15.73;;;4.50;99.90;;;;;;4232286;28;20115;-84
2022/11/08 07:03:02;;;;;;;42.45;16.15;;;4.50;99.90;;;;;;4229709;28;20416;-83
2022/11/08 07:05:22;;;;;;;50.22;18.85;;;4.60;99.90;;;;;;4232058;28;20333;-84
2022/11/08 07:07:42;;;;;;;26.38;15.65;;;4.60;99.90;;;;;;4215282;28;20105;-83
2022/11/08 07:10:03;;;;;;;56.25;17.48;;;4.70;99.90;;;;;;4224441;28;20440;-83
2022/11/08 07:12:24;;;;;;;35.63;19.25;;;4.70;99.90;;;;;;4231614;28;20043;-84
2022/11/08 07:14:43;;;;;;;46.47;17.02;;;4.80;99.90;;;;;;4218129;28;20242;-83
2022/11/08 07:17:03;;;;;;;33.00;15.40;;;4.80;99.90;;;;;;4233186;28;20070;-83
2022/11/08 07:19:22;;;;;;;90.75;32.28;;;4.90;99.90;;;;;;4234079;28;20065;-83
2022/11/08 07:21:42;;;;;;;23.77;21.52;;;4.90;99.90;;;;;;4231935;28;20035;-83
2022/11/08 07:24:02;;;;;;;32.70;25.08;;;5.00;99.90;;;;;;4233095;28;20058;-84
2022/11/08 07:26:22;;;;;;;38.15;9.32;;;5.10;99.90;;;;;;4235231;28;20120;-83
2022/11/08 07:28:41;;;;;;;14.52;12.98;;;5.00;99.90;;;;;;4224558;28;20042;-83
2022/11/08 07:31:03;;;;;;;33.92;16.25;;;5.20;99.90;;;;;;4226157;28;20043;-83
2022/11/08 07:33:23;;;;;;;50.13;18.80;;;5.30;99.90;;;;;;4216119;28;20050;-83
2022/11/08 07:35:46;;;;;;;38.65;12.27;;;5.30;99.90;;;;;;4228749;28;20234;-84
2022/11/08 07:38:06;;;;;;;;;;;5.30;99.90;;;;;;4229017;28;20064;-84
2022/11/08 07:40:26;;;;;;;63.60;9.85;;;5.30;99.90;;;;;;4230463;28;20225;-83
2022/11/08 07:42:46;;;;;;;51.80;12.00;;;5.40;99.90;;;;;;4228991;28;20047;-84
2022/11/08 07:45:27;;;;;;;15.52;11.23;;;5.40;99.90;;;;;;4225574;28;20268;-85
2022/11/08 07:47:46;;;;;;;159.90;19.23;;;5.60;99.90;;;;;;4224011;28;20147;-85
2022/11/08 07:50:06;;;;;;;452.75;36.25;;;5.50;99.90;;;;;;4223975;28;20085;-85
2022/11/08 07:52:26;;;;;;;94.78;18.13;;;5.40;99.90;;;;;;4224638;28;20065;-85
2022/11/08 07:54:45;;;;;;;215.98;24.35;;;5.40;99.90;;;;;;4220919;28;20047;-85
2022/11/08 07:57:05;;;;;;;200.13;20.52;;;5.40;99.90;;;;;;4216900;28;20128;-85
2022/11/08 07:59:25;;;;;;;146.32;22.08;;;5.40;99.90;;;;;;4227423;28;20259;-84
2022/11/08 08:01:45;;;;;;;16.13;14.90;;;5.40;99.90;;;;;;4226534;28;20043;-84
2022/11/08 08:04:05;;;;;;;93.60;19.67;;;5.50;99.90;;;;;;4227039;28;20108;-85
2022/11/08 08:06:25;;;;;;;94.82;17.88;;;5.70;99.90;;;;;;4229868;28;20034;-85
2022/11/08 08:08:45;;;;;;;288.25;25.63;;;5.70;99.90;;;;;;4230151;28;20071;-84
2022/11/08 08:11:05;;;;;;;116.93;18.42;;;5.80;99.90;;;;;;4226990;28;20043;-84
2022/11/08 08:13:25;;;;;;;60.45;15.63;;;5.90;99.90;;;;;;4228716;28;20463;-84
2022/11/08 08:15:45;;;;;;;63.35;16.52;;;6.00;99.90;;;;;;4226711;28;20105;-86
2022/11/08 08:18:06;;;;;;;42.22;16.10;;;6.10;99.90;;;;;;4227730;28;20120;-84
2022/11/08 08:20:27;;;;;;;60.47;18.42;;;6.00;99.90;;;;;;4225642;28;20042;-85
2022/11/08 08:22:49;;;;;;;56.53;12.80;;;6.10;99.90;;;;;;4228413;28;20085;-85
2022/11/08 08:25:10;;;;;;;29.23;13.43;;;6.20;99.90;;;;;;4216366;28;20263;-83
2022/11/08 08:27:29;;;;;;;20.05;10.10;;;6.30;99.90;;;;;;4236499;28;20084;-83
2022/11/08 08:29:49;;;;;;;11.70;10.88;;;6.40;99.90;;;;;;4236379;28;20389;-84
2022/11/08 08:32:09;;;;;;;12.18;8.93;;;6.50;99.90;;;;;;4234003;28;20047;-83
2022/11/08 08:34:29;;;;;;;47.40;12.45;;;6.70;99.90;;;;;;4230156;28;20051;-84
2022/11/08 08:36:48;;;;;;;22.33;12.25;;;6.70;99.90;;;;;;4222232;28;20062;-84
2022/11/08 08:39:08;;;;;;;11.02;9.98;;;6.80;99.90;;;;;;4235410;28;20348;-84
2022/11/08 08:41:28;;;;;;;30.45;10.55;;;6.70;99.90;;;;;;4233950;28;20040;-83
2022/11/08 08:43:48;;;;;;;19.30;8.63;;;6.80;99.90;;;;;;4229040;28;20054;-83
2022/11/08 08:46:08;;;;;;;8.40;8.05;;;6.90;99.90;;;;;;4209751;28;20120;-83
2022/11/08 08:48:28;;;;;;;9.63;8.77;;;7.10;99.90;;;;;;4230591;28;20051;-84
2022/11/08 08:50:48;;;;;;;8.50;8.05;;;7.10;99.90;;;;;;4220012;28;20085;-84
2022/11/08 08:53:09;;;;;;;8.10;7.80;;;7.20;99.90;;;;;;4213547;28;20367;-84
2022/11/08 08:55:29;;;;;;;9.10;8.80;;;7.30;99.90;;;;;;4226074;28;20094;-84
2022/11/08 08:57:49;;;;;;;8.38;8.05;;;7.30;99.90;;;;;;4210492;28;20055;-84
2022/11/08 09:00:09;;;;;;;7.82;7.65;;;7.30;99.90;;;;;;4229139;28;20047;-84
2022/11/08 09:02:49;;;;;;;8.27;8.07;;;7.40;99.90;;;;;;4223516;28;20056;-84
2022/11/08 09:05:11;;;;;;;12.77;11.93;;;7.40;99.90;;;;;;4229453;28;20051;-84
2022/11/08 09:07:31;;;;;;;8.15;7.90;;;7.50;99.90;;;;;;4215320;28;20040;-84
2022/11/08 09:09:50;;;;;;;8.75;8.45;;;7.60;99.90;;;;;;4225034;28;20051;-84
2022/11/08 09:12:11;;;;;;;9.07;8.68;;;7.70;99.90;;;;;;4226852;28;20152;-84
2022/11/08 09:14:34;;;;;;;7.78;7.47;;;7.90;99.90;;;;;;4223844;28;20047;-84
2022/11/08 09:16:53;;;;;;;8.60;8.30;;;8.00;99.90;;;;;;4228641;28;20219;-84
2022/11/08 09:19:13;;;;;;;6.43;6.25;;;8.20;99.90;;;;;;4216278;28;20051;-84
2022/11/08 09:21:33;;;;;;;6.82;6.55;;;8.40;99.90;;;;;;4226779;28;20235;-83
2022/11/08 09:23:53;;;;;;;5.97;5.88;;;8.50;99.90;;;;;;4218448;28;20200;-84
2022/11/08 09:26:12;;;;;;;8.30;7.55;;;8.50;99.90;;;;;;4221989;28;20042;-84
2022/11/08 09:28:34;;;;;;;6.95;6.55;;;8.60;99.90;;;;;;4230161;28;20070;-83
2022/11/08 09:30:55;;;;;;;6.80;6.55;;;8.60;99.90;;;;;;4216575;28;20047;-84
2022/11/08 09:33:15;;;;;;;7.03;5.95;;;8.60;99.90;;;;;;4228614;28;20047;-84
2022/11/08 09:35:35;;;;;;;5.25;5.15;;;8.70;99.90;;;;;;4225849;28;20144;-84
2022/11/08 09:37:54;;;;;;;6.05;5.80;;;8.90;99.90;;;;;;4231696;28;20065;-84
2022/11/08 09:40:17;;;;;;;3.55;3.50;;;9.00;99.90;;;;;;4228881;28;20046;-83
2022/11/08 09:43:02;;;;;;;3.78;3.67;;;9.20;99.90;;;;;;4229264;28;20038;-83
2022/11/08 09:45:25;;;;;;;4.20;3.95;;;9.40;99.90;;;;;;4230277;28;20235;-84
2022/11/08 09:48:07;;;;;;;3.85;3.65;;;9.90;99.90;;;;;;4226972;28;20054;-84
2022/11/08 09:50:43;;;;;;;3.58;3.47;;;10.00;99.90;;;;;;4215080;28;20063;-84
2022/11/08 09:53:33;;;;;;;3.33;3.22;;;10.10;99.90;;;;;;4227012;28;20043;-84
2022/11/08 09:56:01;;;;;;;5.53;5.30;;;10.20;99.90;;;;;;4231035;28;20074;-84
2022/11/08 09:58:33;;;;;;;6.47;6.07;;;10.70;99.90;;;;;;4229599;28;20255;-84
2022/11/08 10:00:53;;;;;;;6.53;6.32;;;10.70;99.90;;;;;;4233235;28;20042;-85
2022/11/08 10:03:16;;;;;;;6.25;5.97;;;10.90;99.90;;;;;;4220646;28;20078;-84
2022/11/08 10:05:43;;;;;;;5.93;5.45;;;11.00;99.90;;;;;;4224529;28;20231;-84
2022/11/08 10:08:48;;;;;;;4.72;4.63;;;11.20;99.90;;;;;;4231370;28;20054;-84
2022/11/08 10:11:16;;;;;;;;;;;11.40;99.90;;;;;;4218338;28;20051;-85
2022/11/08 10:13:47;;;;;;;4.28;4.03;;;11.60;99.90;;;;;;4233582;28;19938;-84
2022/11/08 10:16:25;;;;;;;3.85;3.75;;;11.80;99.90;;;;;;4216270;28;20441;-85
2022/11/08 10:19:03;;;;;;;3.92;3.78;;;12.00;99.90;;;;;;4219279;28;20040;-85
2022/11/08 10:21:38;;;;;;;3.22;3.10;;;12.00;99.90;;;;;;4231427;28;20043;-84
2022/11/08 10:24:25;;;;;;;2.38;2.35;;;12.10;99.90;;;;;;4217283;28;20042;-85
2022/11/08 10:26:49;;;;;;;3.63;3.53;;;12.30;99.90;;;;;;4232491;28;20119;-85
2022/11/08 10:29:18;;;;;;;3.10;3.10;;;12.60;99.90;;;;;;4225890;28;20047;-85
2022/11/08 10:31:41;;;;;;;6.78;6.57;;;12.80;99.90;;;;;;4229812;28;20039;-85
2022/11/08 10:34:03;;;;;;;4.30;4.10;;;13.00;99.90;;;;;;4232522;28;20134;-85
2022/11/08 10:36:45;;;;;;;3.53;3.23;;;13.10;99.90;;;;;;4228810;28;20078;-85
2022/11/08 10:39:08;;;;;;;3.78;3.47;;;13.40;99.90;;;;;;4214746;28;20039;-85
2022/11/08 10:41:59;;;;;;;2.83;2.72;;;13.80;99.90;;;;;;4223181;28;20131;-85
2022/11/08 10:44:23;;;;;;;3.50;3.30;;;13.90;99.90;;;;;;4229882;28;20063;-85
2022/11/08 10:46:44;;;;;;;4.22;3.10;;;14.00;99.90;;;;;;4225543;28;20077;-85
2022/11/08 10:49:24;;;;;;;2.75;2.65;;;14.20;99.90;;;;;;4226880;28;20081;-85
2022/11/08 10:51:47;;;;;;;2.97;2.20;;;14.60;99.90;;;;;;4228519;28;20268;-85
2022/11/08 10:54:07;;;;;;;3.65;3.45;;;14.60;99.90;;;;;;4214595;28;20098;-85
2022/11/08 10:56:27;;;;;;;3.90;3.80;;;14.70;99.90;;;;;;4224810;28;20236;-85
2022/11/08 10:58:47;;;;;;;2.25;2.15;;;14.90;99.90;;;;;;4224300;28;20239;-84
2022/11/08 11:01:26;;;;;;;3.17;3.08;;;14.90;99.90;;;;;;4229220;28;20055;-85
2022/11/08 11:03:48;;;;;;;3.00;2.90;;;15.20;99.90;;;;;;4218993;28;20426;-85
2022/11/08 11:06:28;;;;;;;2.97;2.88;;;15.30;99.90;;;;;;4214462;28;20465;-85
2022/11/08 11:09:16;;;;;;;2.67;2.58;;;15.50;99.90;;;;;;4218222;28;20043;-85
2022/11/08 11:11:37;;;;;;;4.28;4.07;;;15.40;99.90;;;;;;4224585;28;20051;-85
2022/11/08 11:14:12;;;;;;;15.45;14.05;;;15.80;99.90;;;;;;4218303;28;20150;-85
2022/11/08 11:16:53;;;;;;;9.27;8.45;;;15.90;99.90;;;;;;4224588;28;20080;-84
2022/11/08 11:19:14;;;;;;;1.02;1.02;;;15.80;99.90;;;;;;4232423;28;20054;-85
2022/11/08 11:21:37;;;;;;;6.28;5.78;;;15.80;99.90;;;;;;4233141;28;20073;-85
2022/11/08 11:24:15;;;;;;;7.55;6.95;;;16.30;99.90;;;;;;4231227;28;20043;-85
2022/11/08 11:26:47;;;;;;;1.20;1.20;;;16.60;99.90;;;;;;4234483;28;20047;-85
2022/11/08 11:29:27;;;;;;;2.00;1.90;;;16.80;99.90;;;;;;4217576;28;20107;-85
2022/11/08 11:31:50;;;;;;;1.60;1.10;;;16.90;99.90;;;;;;4229227;28;20051;-85
2022/11/08 11:34:16;;;;;;;1.40;1.25;;;17.10;99.90;;;;;;4230394;28;20047;-85
2022/11/08 11:36:36;;;;;;;0.90;0.90;;;17.40;99.90;;;;;;4230839;28;20240;-84
2022/11/08 11:39:05;;;;;;;1.00;1.00;;;17.40;99.90;;;;;;4228636;28;20086;-84
2022/11/08 11:41:34;;;;;;;0.98;0.90;;;17.70;99.90;;;;;;4226362;28;20104;-84
2022/11/08 11:44:10;;;;;;;1.10;1.00;;;17.40;99.90;;;;;;4225426;28;20058;-85
2022/11/08 11:47:12;;;;;;;1.23;1.00;;;17.30;99.90;;;;;;4232802;28;20079;-85
2022/11/08 11:49:34;;;;;;;0.93;0.93;;;17.20;99.90;;;;;;4227402;28;20108;-84
2022/11/08 11:51:54;;;;;;;;;;;17.30;99.90;;;;;;4219375;28;20047;-84
2022/11/08 11:54:15;;;;;;;0.85;0.85;;;17.50;99.90;;;;;;4233202;28;19952;-84
2022/11/08 11:56:54;;;;;;;0.90;0.90;;;17.30;99.90;;;;;;4234641;28;20055;-84
2022/11/08 11:59:41;;;;;;;0.90;0.90;;;17.40;99.90;;;;;;4230479;28;20035;-84
2022/11/08 12:02:13;;;;;;;0.90;0.90;;;17.10;99.90;;;;;;4217321;28;20082;-84
2022/11/08 12:04:36;;;;;;;4.03;1.00;;;17.40;99.90;;;;;;4226117;28;20047;-84
2022/11/08 12:07:22;;;;;;;1.38;1.00;;;17.60;99.90;;;;;;4231758;28;20118;-85
2022/11/08 12:10:12;;;;;;;1.20;0.98;;;17.90;99.90;;;;;;4214704;28;20048;-85
2022/11/08 12:12:43;;;;;;;1.48;1.00;;;17.70;99.90;;;;;;4231164;28;20080;-84
2022/11/08 12:15:24;;;;;;;1.20;1.20;;;17.70;99.90;;;;;;4230094;28;20349;-84
2022/11/08 12:18:22;;;;;;;0.90;0.90;;;17.60;99.90;;;;;;4231604;28;20046;-84
2022/11/08 12:21:41;;;;;;;0.80;0.80;;;17.40;99.90;;;;;;4218368;28;20277;-84
2022/11/08 12:24:07;;;;;;;1.27;0.90;;;17.40;99.90;;;;;;4229947;28;20170;-84
2022/11/08 12:26:35;;;;;;;1.00;1.00;;;17.50;99.90;;;;;;4227626;28;20247;-85
2022/11/08 12:29:07;;;;;;;1.13;1.08;;;17.80;99.90;;;;;;4225746;28;20039;-85
2022/11/08 12:31:52;;;;;;;1.23;1.00;;;17.90;99.90;;;;;;4233228;28;20077;-84
2022/11/08 12:34:18;;;;;;;0.88;0.88;;;18.10;99.90;;;;;;4229439;28;20373;-84
2022/11/08 12:37:11;;;;;;;0.90;0.90;;;17.80;99.90;;;;;;4228783;28;20046;-84
2022/11/08 12:40:12;;;;;;;1.05;1.00;;;17.80;99.90;;;;;;4225231;28;20085;-84
2022/11/08 12:42:55;;;;;;;1.85;1.65;;;17.60;99.90;;;;;;4154093;28;20044;-84
2022/11/08 12:45:20;;;;;;;3.15;1.00;;;18.00;99.90;;;;;;4153541;28;20396;-84
2022/11/08 12:47:54;;;;;;;1.15;0.90;;;18.20;99.90;;;;;;4151605;28;20046;-85
2022/11/08 12:50:32;;;;;;;0.90;0.90;;;18.10;99.90;;;;;;4137856;28;20392;-85